Terminal Aerodrome Forecast
Issued by NWS

Home | Current Version | Previous Version | Text Only | Print | Product List | Glossary On
Versions: 1 2 3 4 5 6 7 8 9 10 11 12 13 14 15 16 17 18 19 20 21 22 23 24
000
FTUS43 KDDC 231712 AAB
TAFGCK
TAF AMD
KGCK 231712Z 2317/2412 19021G29KT P6SM SCT090
     FM240100 17025G39KT P6SM VCTS OVC050CB
     FM240700 18020KT P6SM BKN070=

USA.gov is the U.S. government's official web portal to all federal, state and local government web resources and services.